METAR és
SPECI
METAR LHBP 290630Z 11006KT 7000 OVC006 20/19 Q1011 NOSIG=
METAR LHBP 290600Z 10006KT 070V140 8000 OVC006 20/19 Q1011 NOSIG=
METAR LHBP 290530Z 09007KT 9999 BKN007 SCT230 19/18 Q1011 NOSIG=
METAR LHBP 290500Z 08005KT 050V110 9999 BKN007 SCT080 19/19 Q1010 NOSIG=
METAR LHBP 290430Z 08005KT 9999 SCT008 SCT030 BKN080 19/19 Q1010 NOSIG=
METAR LHBP 290400Z 08005KT 9999 FEW009 SCT025 BKN080 19/19 Q1010 NOSIG=
TAF
TAF LHBP 290502Z 2906/3006 VRB03KT 9999 BKN010 BKN080 BECMG 2906/2909 12007KT 9999 SCT030 SCT080 TEMPO 2906/2921 VRB12KT 6000 SHRA -TSRA SCT025CB BKN030 PROB40 TEMPO 2910/2918 VRB16G28KT 3000 SHRA TSRA BKN025CB BECMG 2918/2921 VRB03KT CAVOK=
GAMET
FAHU41 LHBM 290500
LHCC GAMET VALID 290600/291200 LHBP-
BUDAPEST FIR BLW FL100
SECN 1
SFC VIS: 06/08 0200-5000 M FG BR W OF E01900
06/12 2000-5000 M SHRA TSRA
08/12 0600-5000 M +SHRA +TSRA MAINLY E OF E01900
SIGWX: 06/12 TSRA
08/12 +TSRA MAINLY E OF E01900
SIG CLD: 06/08 BKN 0200-1000/1500 FTAGL
06/12 EMBD CB 0800-3000/XXX FT AGL
SIGMETS APPLICABLE: NIL=
OMSZ: 2014. július 29. 07:22 (05:22  UTC)
[FAHU41]
AIRMET
Nincs érvényes távirat! 
WAHU41 LHBM 050800
LHCC AIRMET 01 VALID 050800/051000 LHBP-
LHCC BUDAPEST FIR EMBD TS OBS AT 0755Z N4730 E01648
AND FCST W OF E01800 TOP FL250 MOV ENE NC=
SIGMET
Nincs érvényes távirat! 
WSHU31 LHBM 282200
LHCC SIGMET 04 VALID 282200/290100 LHBP-
LHCC BUDAPEST FIR EMBD TS OBS S OF N4730 AND E OF E01930 TOP
FL340 MOV NW NC=
SIGMET
Vulkáni hamufelhő
Nincs érvényes távirat! 
WVHU31 LHBM 271515 CCA
LHCC SIGMET 03 VALID 271515/271800 LHBP-
LHCC BUDAPEST FIR EXERCISE VOLCEX12/01
CNL VA SIGMET 02 271200/271800
EXERCISE EXERCISE EXERCISE VOLCEX12/01=